createdAt,value
2022-10-14T00:01:24.764Z,9.52
2022-10-14T00:03:53.847Z,7.47
2022-10-14T00:06:26.260Z,6.32
2022-10-14T00:08:55.051Z,7.32
2022-10-14T00:11:27.177Z,8.05
2022-10-14T00:14:01.600Z,7.93
2022-10-14T00:16:36.580Z,7.88
2022-10-14T00:19:05.914Z,7.32
2022-10-14T00:21:34.926Z,7.88
2022-10-14T00:24:02.778Z,8.88
2022-10-14T00:26:35.670Z,7.30
2022-10-14T00:29:07.168Z,7.50
2022-10-14T00:31:35.774Z,6.72
2022-10-14T00:34:04.129Z,9.52
2022-10-14T00:36:32.085Z,7.45
2022-10-14T00:38:59.931Z,5.95
2022-10-14T00:41:32.192Z,6.88
2022-10-14T00:44:15.254Z,7.60
2022-10-14T00:46:48.786Z,8.43
2022-10-14T00:49:36.100Z,7.32
2022-10-14T00:52:11.221Z,6.28
2022-10-14T00:54:51.192Z,5.50
2022-10-14T00:57:19.742Z,7.07
2022-10-14T00:59:48.209Z,6.93
2022-10-14T01:02:16.058Z,6.30
2022-10-14T01:04:45.268Z,8.70
2022-10-14T01:07:15.744Z,7.68
2022-10-14T01:10:33.048Z,8.43
2022-10-14T01:13:21.821Z,8.93
2022-10-14T01:16:18.816Z,6.57
2022-10-14T01:18:58.089Z,7.15
2022-10-14T01:21:42.524Z,11.57
2022-10-14T01:25:03.820Z,8.15
2022-10-14T01:28:05.125Z,6.65
2022-10-14T01:30:43.104Z,6.32
2022-10-14T01:33:25.472Z,8.07
2022-10-14T01:36:07.556Z,10.65
2022-10-14T01:38:46.733Z,6.22
2022-10-14T01:41:18.573Z,7.13
2022-10-14T01:43:50.878Z,10.52
2022-10-14T01:46:22.195Z,8.27
2022-10-14T01:48:58.930Z,7.00
2022-10-14T01:51:59.976Z,8.43
2022-10-14T01:54:35.059Z,7.72
2022-10-14T01:57:11.916Z,5.32
2022-10-14T01:59:41.789Z,6.63
2022-10-14T02:02:11.821Z,6.10
2022-10-14T02:04:42.022Z,6.05
2022-10-14T02:07:28.071Z,6.45
2022-10-14T02:10:37.371Z,4.97
2022-10-14T02:13:58.264Z,6.53
2022-10-14T02:17:10.124Z,6.38
2022-10-14T02:19:56.400Z,4.60
2022-10-14T02:22:47.776Z,6.07
2022-10-14T02:25:34.603Z,6.63
2022-10-14T02:28:05.069Z,6.45
2022-10-14T02:30:39.110Z,8.07
2022-10-14T02:33:08.783Z,8.40
2022-10-14T02:35:39.409Z,6.40
2022-10-14T02:38:08.985Z,7.68
2022-10-14T02:40:43.914Z,8.48
2022-10-14T02:43:12.516Z,7.40
2022-10-14T02:45:43.101Z,6.18
2022-10-14T02:48:12.284Z,6.20
2022-10-14T02:50:41.460Z,7.25
2022-10-14T02:53:14.358Z,5.82
2022-10-14T02:55:45.098Z,8.32
2022-10-14T02:58:12.991Z,6.38
2022-10-14T03:00:40.814Z,6.10
2022-10-14T03:03:09.008Z,5.78
2022-10-14T03:05:36.881Z,6.95
2022-10-14T03:10:40.024Z,6.13
2022-10-14T03:13:10.709Z,6.40
2022-10-14T03:15:43.398Z,6.30
2022-10-14T03:18:12.663Z,4.72
2022-10-14T03:20:45.678Z,5.28
2022-10-14T03:23:18.048Z,4.20
2022-10-14T03:25:49.534Z,4.88
2022-10-14T03:31:01.943Z,6.45
2022-10-14T03:33:46.829Z,7.50
2022-10-14T03:36:19.037Z,8.95
2022-10-14T03:38:51.291Z,5.68
2022-10-14T03:41:33.242Z,6.97
2022-10-14T03:44:01.339Z,6.13
2022-10-14T03:46:29.230Z,9.80
2022-10-14T03:48:58.308Z,6.82
2022-10-14T03:51:26.248Z,6.15
2022-10-14T03:54:02.891Z,7.00
2022-10-14T03:56:30.767Z,6.93
2022-10-14T03:58:58.877Z,7.28
2022-10-14T04:01:27.154Z,9.02
2022-10-14T04:04:20.600Z,9.95
2022-10-14T04:06:48.496Z,11.38
2022-10-14T04:09:18.823Z,7.85
2022-10-14T04:11:46.655Z,8.02
2022-10-14T04:14:49.614Z,6.15
2022-10-14T04:17:17.906Z,15.07
2022-10-14T04:19:46.883Z,10.07
2022-10-14T04:22:18.423Z,11.25
2022-10-14T04:24:51.371Z,8.80
2022-10-14T04:27:19.381Z,7.88
2022-10-14T04:29:53.341Z,10.57
2022-10-14T04:32:28.363Z,9.32
2022-10-14T04:34:56.881Z,11.15
2022-10-14T04:37:27.289Z,9.43
2022-10-14T04:40:01.612Z,13.27
2022-10-14T04:42:31.581Z,12.07
2022-10-14T04:45:05.378Z,10.95
2022-10-14T04:47:48.624Z,12.50
2022-10-14T04:50:19.967Z,8.20
2022-10-14T04:53:10.546Z,11.43
2022-10-14T04:55:49.812Z,12.70
2022-10-14T04:58:18.005Z,10.68
2022-10-14T05:00:48.189Z,11.93
2022-10-14T05:03:32.580Z,10.88
2022-10-14T05:06:00.685Z,9.63
2022-10-14T05:08:28.547Z,10.13
2022-10-14T05:11:00.180Z,8.63
2022-10-14T05:13:43.080Z,9.80
2022-10-14T05:16:11.132Z,11.68
2022-10-14T05:18:41.137Z,9.10
2022-10-14T05:21:11.151Z,12.05
2022-10-14T05:24:05.067Z,12.50
2022-10-14T05:26:34.797Z,10.10
2022-10-14T05:29:06.445Z,12.55
2022-10-14T05:31:34.264Z,10.00
2022-10-14T05:34:09.154Z,11.32
2022-10-14T05:36:37.673Z,12.05
2022-10-14T05:39:11.566Z,11.57
2022-10-14T05:41:40.388Z,9.43
2022-10-14T05:44:11.861Z,10.35
2022-10-14T05:46:40.631Z,13.52
2022-10-14T05:49:11.612Z,10.90
2022-10-14T05:51:39.915Z,10.40
2022-10-14T05:54:15.176Z,14.98
2022-10-14T05:56:44.760Z,14.93
2022-10-14T05:59:13.254Z,15.90
2022-10-14T06:01:41.640Z,13.63
2022-10-14T06:04:16.497Z,12.93
2022-10-14T06:06:44.440Z,13.90
2022-10-14T06:09:13.525Z,9.73
2022-10-14T06:11:41.460Z,12.43
2022-10-14T06:14:09.947Z,10.40
2022-10-14T06:16:38.313Z,11.85
2022-10-14T06:19:08.081Z,14.40
2022-10-14T06:21:35.928Z,11.93
2022-10-14T06:24:04.018Z,12.38
2022-10-14T06:26:31.840Z,9.50
2022-10-14T06:28:59.658Z,8.23
2022-10-14T06:31:31.989Z,11.38
2022-10-14T06:34:00.788Z,11.55
2022-10-14T06:36:28.688Z,15.02
2022-10-14T06:38:56.517Z,11.48
2022-10-14T06:41:24.895Z,10.55
2022-10-14T06:43:53.212Z,8.05
2022-10-14T06:46:21.121Z,13.30
2022-10-14T06:48:50.509Z,9.57
2022-10-14T06:51:18.808Z,11.70
2022-10-14T06:53:46.599Z,10.73
2022-10-14T06:56:14.750Z,8.35
2022-10-14T06:58:42.549Z,9.95
2022-10-14T07:01:10.351Z,8.95
2022-10-14T07:03:39.406Z,11.80
2022-10-14T07:06:09.023Z,9.63
2022-10-14T07:08:36.993Z,8.35
2022-10-14T07:11:05.818Z,10.07
2022-10-14T07:13:37.916Z,9.10
2022-10-14T07:16:06.388Z,11.73
2022-10-14T07:18:34.224Z,11.32
2022-10-14T07:21:06.873Z,9.25
2022-10-14T07:23:34.662Z,8.48
2022-10-14T07:26:02.533Z,8.25
2022-10-14T07:28:30.955Z,8.55
2022-10-14T07:31:06.197Z,11.25
2022-10-14T07:36:17.320Z,7.10
2022-10-14T07:38:48.364Z,7.18
2022-10-14T07:41:20.284Z,11.25
2022-10-14T07:43:52.682Z,17.63
2022-10-14T07:46:32.190Z,8.15
2022-10-14T07:49:08.972Z,8.50
2022-10-14T07:51:37.945Z,8.73
2022-10-14T07:54:11.410Z,7.70
2022-10-14T07:56:42.017Z,7.28
2022-10-14T07:59:09.992Z,11.40
2022-10-14T08:01:38.056Z,7.97
2022-10-14T08:04:06.271Z,8.38
2022-10-14T08:06:34.145Z,7.65
2022-10-14T08:09:04.774Z,8.05
2022-10-14T08:11:33.172Z,8.52
2022-10-14T08:14:01.044Z,9.55
2022-10-14T08:16:32.413Z,10.98
2022-10-14T08:19:05.569Z,11.77
2022-10-14T08:21:35.427Z,12.63
2022-10-14T08:24:03.463Z,5.63
2022-10-14T08:26:38.286Z,9.70
2022-10-14T08:29:11.202Z,8.10
2022-10-14T08:31:39.057Z,8.38
2022-10-14T08:34:07.108Z,9.68
2022-10-14T08:36:34.916Z,6.88
2022-10-14T08:39:02.761Z,8.13
2022-10-14T08:41:42.460Z,9.63
2022-10-14T08:44:33.969Z,6.68
2022-10-14T08:47:10.526Z,7.93
2022-10-14T08:50:02.368Z,8.55
2022-10-14T08:52:47.414Z,9.32
2022-10-14T08:55:43.824Z,7.97
2022-10-14T08:58:19.466Z,7.75
2022-10-14T09:00:52.629Z,8.23
2022-10-14T09:03:33.033Z,9.18
2022-10-14T09:06:20.207Z,6.68
2022-10-14T09:08:49.571Z,8.85
2022-10-14T09:11:24.235Z,10.98
2022-10-14T09:13:59.727Z,8.50
2022-10-14T09:16:35.921Z,9.23
2022-10-14T09:19:14.261Z,9.07
2022-10-14T09:21:54.156Z,8.77
2022-10-14T09:24:35.731Z,11.55
2022-10-14T09:27:18.592Z,8.93
2022-10-14T09:29:54.311Z,13.40
2022-10-14T09:32:31.333Z,12.40
2022-10-14T09:34:59.779Z,11.52
2022-10-14T09:37:34.985Z,11.18
2022-10-14T09:40:13.120Z,12.48
2022-10-14T09:43:08.824Z,8.65
2022-10-14T09:45:59.821Z,10.80
2022-10-14T09:48:50.494Z,9.90
2022-10-14T09:51:28.125Z,10.55
2022-10-14T09:54:02.551Z,10.30
2022-10-14T09:56:40.710Z,10.00
2022-10-14T09:59:24.480Z,7.95
2022-10-14T10:02:01.298Z,9.18
2022-10-14T10:04:32.015Z,9.98
2022-10-14T10:07:06.744Z,6.82
2022-10-14T10:09:35.287Z,7.78
2022-10-14T10:12:30.364Z,7.15
2022-10-14T10:15:03.736Z,7.40
2022-10-14T10:17:39.419Z,8.38
2022-10-14T10:20:30.431Z,8.98
2022-10-14T10:23:29.038Z,8.23
2022-10-14T10:26:29.506Z,8.00
2022-10-14T10:29:00.297Z,7.57
2022-10-14T10:31:57.065Z,7.72
2022-10-14T10:35:01.663Z,8.73
2022-10-14T10:37:50.927Z,10.10
2022-10-14T10:40:32.494Z,8.32
2022-10-14T10:43:20.051Z,9.18
2022-10-14T10:46:08.014Z,7.68
2022-10-14T10:49:06.161Z,6.63
2022-10-14T10:52:08.754Z,9.18
2022-10-14T10:54:48.268Z,6.97
2022-10-14T10:58:36.618Z,7.00
2022-10-14T11:01:26.333Z,7.40
2022-10-14T11:04:32.784Z,7.65
2022-10-14T11:07:30.844Z,6.55
2022-10-14T11:10:42.957Z,9.57
2022-10-14T11:13:46.187Z,7.38
2022-10-14T11:16:57.667Z,9.45
2022-10-14T11:19:39.431Z,7.38
2022-10-14T11:22:34.020Z,5.60
2022-10-14T11:25:33.592Z,8.48
2022-10-14T11:28:16.025Z,9.52
2022-10-14T11:31:29.581Z,5.43
2022-10-14T11:34:31.037Z,7.30
2022-10-14T11:37:26.424Z,7.35
2022-10-14T11:40:26.418Z,6.43
2022-10-14T11:43:55.560Z,5.75
2022-10-14T11:46:29.206Z,6.22
2022-10-14T11:51:48.761Z,7.07
2022-10-14T11:54:28.739Z,6.03
2022-10-14T11:57:09.917Z,9.65
2022-10-14T12:00:33.722Z,6.03
2022-10-14T12:03:18.198Z,8.57
2022-10-14T12:06:02.528Z,6.85
2022-10-14T12:08:57.073Z,5.60
2022-10-14T12:11:44.693Z,6.18
2022-10-14T12:14:36.238Z,5.95
2022-10-14T12:17:17.617Z,15.95
2022-10-14T12:19:46.674Z,7.43
2022-10-14T12:22:25.137Z,4.55
2022-10-14T12:25:07.849Z,5.10
2022-10-14T12:27:37.536Z,5.95
2022-10-14T12:30:25.808Z,5.85
2022-10-14T12:33:12.328Z,4.40
2022-10-14T12:35:59.954Z,3.78
2022-10-14T12:38:30.664Z,4.03
2022-10-14T12:41:38.311Z,3.78
2022-10-14T12:44:14.653Z,3.63
2022-10-14T12:46:49.624Z,4.72
2022-10-14T12:49:22.033Z,3.88
2022-10-14T12:51:58.849Z,5.07
2022-10-14T12:54:30.551Z,3.40
2022-10-14T12:57:03.372Z,6.05
2022-10-14T12:59:38.385Z,2.30
2022-10-14T13:02:32.402Z,2.90
2022-10-14T13:05:10.407Z,3.83
2022-10-14T13:07:43.748Z,2.70
2022-10-14T13:10:44.937Z,4.03
2022-10-14T13:13:41.873Z,4.07
2022-10-14T13:16:11.322Z,3.42
2022-10-14T13:18:39.023Z,4.47
2022-10-14T13:21:09.962Z,4.47
2022-10-14T13:24:26.066Z,2.92
2022-10-14T13:26:54.340Z,2.05
2022-10-14T13:29:34.081Z,2.60
2022-10-14T13:32:20.581Z,2.13
2022-10-14T13:35:25.176Z,4.68
2022-10-14T13:38:14.538Z,2.70
2022-10-14T13:40:56.515Z,3.53
2022-10-14T13:43:42.404Z,2.10
2022-10-14T13:46:47.746Z,2.10
2022-10-14T13:49:24.474Z,2.13
2022-10-14T13:52:00.435Z,2.13
2022-10-14T13:54:33.105Z,1.63
2022-10-14T14:00:40.229Z,2.17
2022-10-14T14:03:31.055Z,2.28
2022-10-14T14:06:00.155Z,2.65
2022-10-14T14:08:42.280Z,1.42
2022-10-14T14:11:19.281Z,2.33
2022-10-14T14:14:24.362Z,3.80
2022-10-14T14:17:02.394Z,3.25
2022-10-14T14:19:46.336Z,2.83
2022-10-14T14:24:50.363Z,1.77
2022-10-14T14:27:26.638Z,1.40
2022-10-14T14:29:55.586Z,2.05
2022-10-14T14:32:31.238Z,1.58
2022-10-14T14:35:00.774Z,1.70
2022-10-14T14:40:22.104Z,3.03
2022-10-14T14:42:54.131Z,2.55
2022-10-14T14:45:40.815Z,2.05
2022-10-14T14:48:12.991Z,1.85
2022-10-14T14:50:44.136Z,2.72
2022-10-14T14:53:24.124Z,4.03
2022-10-14T14:56:00.538Z,2.15
2022-10-14T14:58:49.336Z,2.65
2022-10-14T15:01:24.750Z,3.45
2022-10-14T15:04:15.300Z,2.65
2022-10-14T15:07:08.589Z,2.70
2022-10-14T15:09:42.730Z,3.95
2022-10-14T15:12:22.330Z,3.60
2022-10-14T15:15:00.099Z,5.78
2022-10-14T15:17:44.903Z,4.53
2022-10-14T15:20:38.264Z,4.90
2022-10-14T15:26:36.356Z,3.55
2022-10-14T15:32:14.912Z,2.92
2022-10-14T15:34:42.717Z,4.95
2022-10-14T15:37:13.777Z,3.25
2022-10-14T15:39:41.565Z,2.42
2022-10-14T15:42:12.452Z,2.60
2022-10-14T15:44:40.230Z,2.22
2022-10-14T15:47:22.529Z,2.35
2022-10-14T15:49:50.856Z,4.05
2022-10-14T15:52:20.534Z,4.95
2022-10-14T15:54:50.966Z,2.45
2022-10-14T15:57:18.772Z,3.00
2022-10-14T15:59:49.339Z,5.38
2022-10-14T16:02:32.844Z,6.28
2022-10-14T16:05:18.943Z,2.45
2022-10-14T16:07:49.316Z,3.35
2022-10-14T16:10:20.532Z,3.70
2022-10-14T16:12:49.561Z,3.70
2022-10-14T16:15:49.124Z,3.05
2022-10-14T16:18:21.501Z,3.80
2022-10-14T16:20:52.907Z,3.20
2022-10-14T16:23:27.217Z,2.75
2022-10-14T16:25:58.900Z,3.35
2022-10-14T16:28:26.839Z,4.82
2022-10-14T16:30:54.705Z,6.30
2022-10-14T16:33:22.878Z,3.17
2022-10-14T16:35:54.470Z,5.00
2022-10-14T16:38:24.311Z,2.42
2022-10-14T16:40:57.568Z,2.05
2022-10-14T16:43:26.675Z,2.30
2022-10-14T16:45:59.765Z,4.15
2022-10-14T16:48:28.004Z,2.75
2022-10-14T16:50:56.267Z,3.70
2022-10-14T16:53:42.044Z,2.72
2022-10-14T16:56:34.020Z,4.13
2022-10-14T16:59:02.148Z,3.97
2022-10-14T17:01:32.045Z,2.83
2022-10-14T17:04:00.045Z,2.83
2022-10-14T17:06:27.926Z,3.55
2022-10-14T17:08:55.726Z,2.97
2022-10-14T17:11:24.081Z,3.65
2022-10-14T17:13:54.217Z,8.00
2022-10-14T17:16:22.551Z,2.63
2022-10-14T17:18:50.589Z,3.83
2022-10-14T17:21:18.525Z,5.13
2022-10-14T17:23:46.433Z,4.88
2022-10-14T17:26:18.536Z,3.30
2022-10-14T17:28:47.823Z,5.95
2022-10-14T17:31:20.974Z,10.50
2022-10-14T17:33:50.023Z,14.77
2022-10-14T17:36:27.590Z,15.15
2022-10-14T17:38:57.672Z,16.10
2022-10-14T17:41:28.776Z,5.78
2022-10-14T17:43:58.486Z,2.92
2022-10-14T17:46:29.292Z,2.08
2022-10-14T17:49:00.337Z,2.45
2022-10-14T17:51:29.402Z,2.92
2022-10-14T17:54:03.401Z,3.08
2022-10-14T17:56:34.893Z,4.07
2022-10-14T17:59:07.178Z,2.58
2022-10-14T18:02:02.105Z,5.32
2022-10-14T18:04:22.978Z,4.32
2022-10-14T18:06:50.856Z,3.20
2022-10-14T18:09:18.629Z,8.80
2022-10-14T18:12:07.516Z,30.15
2022-10-14T18:14:34.585Z,17.85
2022-10-14T18:17:02.477Z,8.30
2022-10-14T18:19:30.268Z,7.07
2022-10-14T18:21:58.260Z,10.30
2022-10-14T18:24:26.394Z,7.50
2022-10-14T18:26:54.239Z,19.67
2022-10-14T18:29:23.667Z,44.40
2022-10-14T18:34:21.993Z,42.17
2022-10-14T18:37:11.588Z,44.47
2022-10-14T18:39:39.404Z,38.85
2022-10-14T18:42:07.205Z,14.70
2022-10-14T18:44:34.955Z,30.55
2022-10-14T18:47:02.773Z,36.85
2022-10-14T18:49:30.671Z,23.35
2022-10-14T18:51:58.474Z,10.00
2022-10-14T18:54:26.337Z,42.55
2022-10-14T18:56:55.713Z,16.55
2022-10-14T18:59:24.421Z,12.02
2022-10-14T19:01:53.332Z,12.63
2022-10-14T19:04:25.243Z,32.53
2022-10-14T19:06:53.122Z,22.02
2022-10-14T19:09:24.603Z,22.20
2022-10-14T19:11:53.941Z,21.00
2022-10-14T19:14:22.278Z,31.88
2022-10-14T19:16:50.189Z,13.82
2022-10-14T19:19:20.145Z,17.98
2022-10-14T19:21:50.454Z,8.98
2022-10-14T19:24:18.303Z,4.30
2022-10-14T19:26:47.696Z,5.22
2022-10-14T19:29:16.545Z,8.32
2022-10-14T19:31:44.632Z,6.60
2022-10-14T19:34:15.802Z,6.97
2022-10-14T19:36:44.867Z,7.85
2022-10-14T19:39:16.777Z,14.95
2022-10-14T19:41:46.591Z,16.50
2022-10-14T19:44:16.335Z,25.00
2022-10-14T19:46:45.272Z,8.02
2022-10-14T19:49:15.597Z,11.10
2022-10-14T19:51:43.971Z,5.78
2022-10-14T19:54:13.244Z,4.40
2022-10-14T19:56:41.282Z,2.72
2022-10-14T19:59:10.049Z,3.53
2022-10-14T20:01:37.892Z,2.60
2022-10-14T20:04:05.941Z,2.50
2022-10-14T20:06:35.878Z,2.47
2022-10-14T20:09:04.701Z,4.40
2022-10-14T20:11:32.889Z,3.85
2022-10-14T20:14:00.659Z,2.17
2022-10-14T20:16:28.843Z,2.83
2022-10-14T20:18:56.745Z,2.97
2022-10-14T20:21:25.264Z,3.97
2022-10-14T20:23:53.037Z,2.70
2022-10-14T20:26:22.013Z,1.80
2022-10-14T20:28:50.443Z,2.20
2022-10-14T20:31:21.991Z,3.95
2022-10-14T20:33:49.854Z,3.55
2022-10-14T20:36:21.125Z,5.15
2022-10-14T20:38:50.124Z,3.47
2022-10-14T20:41:22.155Z,5.80
2022-10-14T20:43:50.680Z,4.97
2022-10-14T20:46:18.951Z,2.92
2022-10-14T20:48:46.793Z,2.72
2022-10-14T20:51:20.217Z,3.20
2022-10-14T20:53:48.118Z,3.47
2022-10-14T20:56:16.195Z,2.33
2022-10-14T20:58:44.089Z,5.35
2022-10-14T21:01:17.458Z,3.58
2022-10-14T21:03:46.642Z,1.83
2022-10-14T21:06:18.834Z,2.45
2022-10-14T21:08:51.760Z,2.45
2022-10-14T21:11:23.602Z,1.17
2022-10-14T21:13:54.479Z,1.45
2022-10-14T21:16:24.675Z,3.70
2022-10-14T21:18:57.886Z,1.15
2022-10-14T21:21:28.806Z,1.85
2022-10-14T21:23:58.361Z,2.28
2022-10-14T21:26:26.998Z,1.63
2022-10-14T21:28:54.874Z,2.85
2022-10-14T21:31:22.898Z,1.63
2022-10-14T21:34:04.124Z,1.30
2022-10-14T21:36:35.401Z,1.33
2022-10-14T21:39:12.587Z,2.38
2022-10-14T21:41:41.703Z,2.42
2022-10-14T21:44:14.015Z,1.95
2022-10-14T21:46:41.895Z,1.30
2022-10-14T21:49:10.836Z,1.42
2022-10-14T21:51:39.424Z,1.95
2022-10-14T21:54:07.392Z,2.13
2022-10-14T21:56:35.252Z,2.20
2022-10-14T21:59:04.257Z,2.83
2022-10-14T22:01:32.219Z,2.10
2022-10-14T22:04:04.042Z,3.45
2022-10-14T22:06:36.333Z,2.17
2022-10-14T22:09:07.181Z,3.13
2022-10-14T22:11:41.225Z,3.22
2022-10-14T22:14:19.450Z,2.10
2022-10-14T22:16:48.445Z,2.70
2022-10-14T22:19:16.347Z,2.28
2022-10-14T22:21:47.895Z,1.88
2022-10-14T22:24:15.729Z,4.63
2022-10-14T22:26:43.554Z,2.08
2022-10-14T22:29:17.039Z,2.50
2022-10-14T22:31:46.500Z,3.40
2022-10-14T22:34:16.872Z,3.40
2022-10-14T22:36:44.836Z,4.10
2022-10-14T22:39:16.326Z,2.97
2022-10-14T22:41:44.151Z,3.00
2022-10-14T22:44:12.106Z,1.45
2022-10-14T22:46:40.839Z,1.52
2022-10-14T22:49:08.684Z,2.53
2022-10-14T22:51:40.733Z,5.00
2022-10-14T22:54:10.375Z,2.08
2022-10-14T22:56:38.973Z,2.90
2022-10-14T22:59:10.984Z,1.65
2022-10-14T23:01:41.046Z,2.78
2022-10-14T23:04:10.807Z,3.38
2022-10-14T23:06:40.045Z,2.15
2022-10-14T23:09:07.839Z,3.53
2022-10-14T23:11:36.317Z,1.45
2022-10-14T23:14:07.106Z,1.85
2022-10-14T23:16:36.247Z,1.00
2022-10-14T23:19:04.124Z,2.53
2022-10-14T23:21:35.700Z,1.42
2022-10-14T23:24:07.978Z,3.95
2022-10-14T23:26:36.446Z,1.55
2022-10-14T23:29:11.636Z,1.67
2022-10-14T23:31:40.517Z,2.28
2022-10-14T23:34:12.776Z,1.63
2022-10-14T23:36:41.724Z,1.50
2022-10-14T23:39:10.091Z,2.95
2022-10-14T23:41:38.117Z,2.38
2022-10-14T23:44:05.968Z,3.33
2022-10-14T23:46:33.866Z,2.25
2022-10-14T23:49:07.512Z,1.73
2022-10-14T23:51:42.658Z,1.33
2022-10-14T23:54:10.654Z,2.90
2022-10-14T23:56:38.570Z,1.83
2022-10-14T23:59:06.344Z,1.80
